Time;durP1;ratioP1;P1;durP2;ratioP2;P2;SDS_P1;SDS_P2;PMS_P1;PMS_P2;Temp;Humidity;BMP_temperature;BMP_pressure;BME280_temperature;BME280_humidity;BME280_pressure;Samples;Min_cycle;Max_cycle;Signal;HPM_P1;HPM_P2
2022/06/27 00:00:15;;;;;;;8.33;4.70;;;;;;;18.27;100.00;101090.16;5003077;28;20105;-74
2022/06/27 00:02:41;;;;;;;9.27;5.35;;;;;;;18.27;100.00;101087.44;4987854;28;20543;-75
2022/06/27 00:05:07;;;;;;;8.45;5.18;;;;;;;18.28;100.00;101100.72;4988836;28;20131;-75
2022/06/27 00:07:33;;;;;;;8.75;5.07;;;;;;;18.26;100.00;101100.13;5020477;28;20498;-74
2022/06/27 00:09:58;;;;;;;10.93;4.60;;;;;;;18.30;100.00;101104.06;4988527;28;20018;-74
2022/06/27 00:12:24;;;;;;;7.47;5.00;;;;;;;18.33;100.00;101110.94;5020496;28;20038;-74
2022/06/27 00:14:49;;;;;;;9.27;4.85;;;;;;;18.37;100.00;101117.59;5003587;28;20050;-74
2022/06/27 00:17:15;;;;;;;6.88;4.80;;;;;;;18.32;100.00;101117.38;5019827;28;20049;-74
2022/06/27 00:19:40;;;;;;;6.43;4.73;;;;;;;18.29;100.00;101115.09;5019487;28;20058;-74
2022/06/27 00:22:06;;;;;;;7.90;5.60;;;;;;;18.35;100.00;101108.84;4987054;28;20118;-75
2022/06/27 00:24:32;;;;;;;6.83;5.97;;;;;;;18.47;100.00;101112.66;4988244;28;20495;-75
2022/06/27 00:26:57;;;;;;;9.07;5.20;;;;;;;18.50;100.00;101108.69;5003266;28;20092;-74
2022/06/27 00:29:23;;;;;;;11.67;5.97;;;;;;;18.49;100.00;101093.50;4987689;28;20043;-74
2022/06/27 00:31:48;;;;;;;8.77;5.57;;;;;;;18.42;100.00;101090.78;5019325;28;20026;-75
2022/06/27 00:34:13;;;;;;;7.77;5.13;;;;;;;18.50;100.00;101089.75;5019439;28;20894;-75
2022/06/27 00:36:39;;;;;;;8.80;4.67;;;;;;;18.55;100.00;101071.88;5003142;28;20030;-74
2022/06/27 00:39:04;;;;;;;9.02;5.13;;;;;;;18.47;100.00;101063.97;4986386;28;20034;-73
2022/06/27 00:41:30;;;;;;;7.60;5.10;;;;;;;18.51;100.00;101070.63;4986740;28;20096;-74
2022/06/27 00:43:55;;;;;;;8.00;4.60;;;;;;;18.55;100.00;101071.88;5019198;28;20352;-75
2022/06/27 00:46:21;;;;;;;6.70;4.10;;;;;;;18.54;100.00;101067.53;4987217;28;20022;-75
2022/06/27 00:48:47;;;;;;;6.38;4.70;;;;;;;18.46;100.00;101064.19;4987641;28;20018;-74
2022/06/27 00:51:12;;;;;;;6.40;4.33;;;;;;;18.48;100.00;101054.81;4987731;28;20030;-74
2022/06/27 00:53:38;;;;;;;7.43;4.33;;;;;;;18.42;100.00;101044.81;4986627;28;20472;-74
2022/06/27 00:56:04;;;;;;;5.40;4.40;;;;;;;18.41;100.00;101042.34;4987865;28;20300;-74
2022/06/27 00:58:29;;;;;;;;;;;;;;;18.41;100.00;101053.97;4995381;28;20108;-74
2022/06/27 01:00:55;;;;;;;;;;;;;;;18.45;100.00;101054.38;4994143;28;19968;-74
2022/06/27 01:03:20;;;;;;;6.93;4.27;;;;;;;18.41;100.00;101043.16;4986482;28;19960;-74
2022/06/27 01:05:52;;;;;;;8.57;5.07;;;;;;;18.41;100.00;101037.75;4987841;28;20085;-75
2022/06/27 01:08:22;;;;;;;12.20;4.95;;;;;;;18.37;100.00;101058.13;4978066;28;20085;-74
2022/06/27 01:10:47;;;;;;;10.00;5.53;;;;;;;18.28;100.00;101062.88;4985960;28;20041;-74
2022/06/27 01:13:13;;;;;;;6.13;5.10;;;;;;;18.28;100.00;101073.69;4986083;28;20034;-74
2022/06/27 01:15:41;;;;;;;6.15;5.22;;;;;;;18.30;100.00;101079.75;4994147;28;21043;-74
2022/06/27 01:18:08;;;;;;;5.50;4.18;;;;;;;18.33;100.00;101089.31;5016362;28;20046;-74
2022/06/27 01:20:34;;;;;;;8.52;5.25;;;;;;;18.26;100.00;101074.94;5010179;28;20550;-74
2022/06/27 01:22:59;;;;;;;9.23;5.78;;;;;;;18.22;100.00;101081.81;5018174;28;20053;-75
2022/06/27 01:25:25;;;;;;;8.00;5.20;;;;;;;18.13;100.00;101079.28;5001313;28;20503;-75
2022/06/27 01:27:51;;;;;;;15.75;6.47;;;;;;;18.19;100.00;101083.06;5017886;28;20092;-74
2022/06/27 01:30:20;;;;;;;10.35;5.47;;;;;;;18.23;100.00;101080.78;5001027;28;20088;-74
2022/06/27 01:32:45;;;;;;;;;;;;;;;18.24;100.00;101077.00;4992640;28;20032;-74
2022/06/27 01:35:11;;;;;;;7.90;6.07;;;;;;;18.17;100.00;101065.38;5010528;28;19914;-75
2022/06/27 01:37:37;;;;;;;8.95;6.85;;;;;;;18.18;100.00;101067.88;5017714;28;20069;-74
2022/06/27 01:40:03;;;;;;;11.65;6.38;;;;;;;18.19;100.00;101060.59;5000916;28;20038;-74
2022/06/27 01:42:31;;;;;;;8.88;5.45;;;;;;;18.21;100.00;101056.66;5017582;28;20380;-75
2022/06/27 01:44:57;;;;;;;11.38;6.30;;;;;;;18.21;100.00;101048.53;5017514;28;20117;-75
2022/06/27 01:47:22;;;;;;;9.00;5.13;;;;;;;18.23;100.00;101062.69;4978036;28;20113;-75
2022/06/27 01:49:53;;;;;;;8.85;6.60;;;;;;;18.18;100.00;101064.34;5000077;28;20816;-75
2022/06/27 01:52:23;;;;;;;13.38;6.30;;;;;;;18.20;100.00;101062.28;5001021;28;20033;-74
2022/06/27 01:54:48;;;;;;;6.28;4.95;;;;;;;18.17;100.00;101062.66;4992073;28;20022;-75
2022/06/27 01:57:18;;;;;;;10.32;6.28;;;;;;;18.21;100.00;101063.94;5001064;28;20054;-74
2022/06/27 01:59:48;;;;;;;10.02;5.95;;;;;;;18.17;100.00;101057.25;4968527;28;20391;-75
2022/06/27 02:02:13;;;;;;;7.78;6.40;;;;;;;18.23;100.00;101053.75;4978175;28;20416;-75
2022/06/27 02:04:41;;;;;;;17.55;7.32;;;;;;;18.24;100.00;101055.41;5017144;28;20471;-75
2022/06/27 02:07:07;;;;;;;12.35;7.10;;;;;;;18.31;100.00;101053.56;4985824;28;20045;-74
2022/06/27 02:09:33;;;;;;;7.88;5.90;;;;;;;18.29;100.00;101040.25;5017228;28;20022;-74
2022/06/27 02:12:18;;;;;;;8.43;5.43;;;;;;;18.26;100.00;101037.97;5001247;28;20446;-75
2022/06/27 02:14:49;;;;;;;9.68;5.55;;;;;;;18.31;100.00;101037.34;4984359;28;20294;-75
2022/06/27 02:17:16;;;;;;;8.20;5.15;;;;;;;18.21;100.00;101036.91;4977487;28;20038;-74
2022/06/27 02:19:42;;;;;;;8.07;5.85;;;;;;;18.22;100.00;101046.69;5016783;28;20520;-75
2022/06/27 02:22:09;;;;;;;9.68;6.38;;;;;;;18.19;100.00;101041.69;4969522;28;20084;-75
2022/06/27 02:24:36;;;;;;;10.27;6.82;;;;;;;18.20;100.00;101052.28;5000794;28;20030;-75
2022/06/27 02:27:03;;;;;;;11.67;7.27;;;;;;;18.14;100.00;101045.84;4986221;28;20049;-75
2022/06/27 02:29:28;;;;;;;10.82;6.10;;;;;;;18.19;100.00;101047.09;4984127;28;20480;-75
2022/06/27 02:31:54;;;;;;;13.80;7.43;;;;;;;18.23;100.00;101037.53;5000470;28;20053;-75
2022/06/27 02:34:19;;;;;;;10.80;6.17;;;;;;;18.25;100.00;101030.06;5000477;28;20061;-74
2022/06/27 02:36:47;;;;;;;10.77;6.87;;;;;;;18.28;100.00;101025.06;4985370;28;20125;-74
2022/06/27 02:39:23;;;;;;;10.85;6.35;;;;;;;18.28;100.00;101024.22;4993482;28;20088;-75
2022/06/27 02:41:53;;;;;;;7.47;6.25;;;;;;;18.30;100.00;101025.69;5017045;28;20026;-75
2022/06/27 02:44:20;;;;;;;9.35;6.13;;;;;;;18.33;100.00;101036.09;4985145;28;20065;-74
2022/06/27 02:46:48;;;;;;;11.25;6.25;;;;;;;18.37;100.00;101030.28;4990978;28;20076;-75
2022/06/27 02:49:15;;;;;;;12.55;5.93;;;;;;;18.35;100.00;101027.75;5000755;28;20040;-74
2022/06/27 02:51:43;;;;;;;6.50;5.80;;;;;;;18.33;100.00;101062.28;5000761;28;20023;-74
2022/06/27 02:54:16;;;;;;;8.20;5.03;;;;;;;18.59;100.00;101106.59;5000983;28;21017;-74
2022/06/27 02:57:07;;;;;;;6.72;5.43;;;;;;;18.58;100.00;101134.69;4979016;28;20038;-75
2022/06/27 02:59:35;;;;;;;9.73;6.00;;;;;;;18.55;100.00;101142.16;4995564;28;20085;-75
2022/06/27 03:02:01;;;;;;;9.95;6.50;;;;;;;18.41;100.00;101121.56;5016840;28;20022;-74
2022/06/27 03:04:47;;;;;;;;;;;;;;;18.46;100.00;101089.34;5011932;28;20194;-74
2022/06/27 03:07:12;;;;;;;;;;;;;;;18.38;100.00;101105.75;5016553;28;20024;-74
2022/06/27 03:09:37;;;;;;;13.27;6.67;;;;;;;18.08;100.00;101129.59;4976941;28;19949;-74
2022/06/27 03:12:03;;;;;;;9.73;5.80;;;;;;;18.19;100.00;101152.47;4996713;28;20081;-74
2022/06/27 03:14:32;;;;;;;10.50;5.00;;;;;;;18.21;100.00;101142.28;4987109;28;20022;-74
2022/06/27 03:16:57;;;;;;;10.55;5.57;;;;;;;18.23;100.00;101111.31;5019766;28;20032;-74
2022/06/27 03:19:24;;;;;;;9.18;5.93;;;;;;;18.23;100.00;101102.38;4980367;28;20031;-74
2022/06/27 03:22:08;;;;;;;11.75;5.57;;;;;;;18.10;100.00;101125.66;5016203;28;20038;-74
2022/06/27 03:24:33;;;;;;;9.20;5.53;;;;;;;18.17;100.00;101146.44;5018535;28;20033;-75
2022/06/27 03:26:59;;;;;;;11.70;6.20;;;;;;;18.17;100.00;101138.31;5018635;28;20268;-74
2022/06/27 03:29:24;;;;;;;8.82;5.70;;;;;;;18.06;100.00;101124.38;5000912;28;20120;-75
2022/06/27 03:31:50;;;;;;;10.53;5.03;;;;;;;18.11;100.00;101130.00;4993351;28;20089;-74
2022/06/27 03:34:15;;;;;;;16.27;5.77;;;;;;;18.01;100.00;101118.75;4987071;28;20034;-74
2022/06/27 03:36:47;;;;;;;9.13;5.82;;;;;;;18.05;100.00;101122.72;5056845;22;20080;-76
2022/06/27 03:39:15;;;;;;;7.97;5.03;;;;;;;18.07;100.00;101120.63;5010900;28;20061;-76
2022/06/27 03:41:40;;;;;;;11.32;5.57;;;;;;;18.10;100.00;101101.31;4986551;28;20121;-76
2022/06/27 03:44:11;;;;;;;6.45;5.07;;;;;;;18.13;100.00;101100.91;5007463;28;20501;-76
2022/06/27 03:46:43;;;;;;;13.15;5.38;;;;;;;18.10;100.00;101105.91;5007558;28;20506;-76
2022/06/27 03:52:09;;;;;;;8.00;5.57;;;;;;;18.21;100.00;101088.25;5007304;28;20045;-76
2022/06/27 03:54:35;;;;;;;7.72;4.78;;;;;;;18.24;100.00;101068.91;4991003;28;20030;-76
2022/06/27 03:57:01;;;;;;;9.80;5.00;;;;;;;18.28;100.00;101064.78;5006741;28;20110;-77
2022/06/27 03:59:27;;;;;;;11.57;4.90;;;;;;;18.24;100.00;101068.91;5006829;28;20038;-77
2022/06/27 04:01:52;;;;;;;8.13;4.50;;;;;;;18.29;100.00;101066.44;5007301;28;20038;-76
2022/06/27 04:04:18;;;;;;;12.00;4.90;;;;;;;18.30;100.00;101065.41;5007121;28;20058;-76
2022/06/27 04:06:43;;;;;;;5.88;4.43;;;;;;;18.24;100.00;101063.50;5007065;28;20105;-76
2022/06/27 04:09:09;;;;;;;7.45;4.32;;;;;;;18.26;100.00;101061.44;4990643;28;20045;-77
2022/06/27 04:11:35;;;;;;;10.73;3.97;;;;;;;18.29;100.00;101055.63;5006190;28;20036;-77
2022/06/27 04:14:01;;;;;;;6.82;4.55;;;;;;;18.23;100.00;101040.25;5006888;28;20760;-74
2022/06/27 04:16:44;;;;;;;9.73;4.13;;;;;;;18.32;100.00;101050.63;5007449;28;20117;-76
2022/06/27 04:19:29;;;;;;;6.97;3.30;;;;;;;18.23;100.00;101035.66;5006600;28;20085;-77
2022/06/27 04:22:08;;;;;;;6.60;3.60;;;;;;;18.32;100.00;101036.28;4992494;28;20029;-76
2022/06/27 04:25:07;;;;;;;4.45;3.00;;;;;;;18.32;100.00;101029.00;5005871;28;20060;-76
2022/06/27 04:27:43;;;;;;;5.45;3.25;;;;;;;18.35;100.00;101011.53;5006764;28;20064;-73
2022/06/27 04:30:16;;;;;;;7.53;3.80;;;;;;;18.25;100.00;101006.56;5006816;28;20876;-76
2022/06/27 04:32:42;;;;;;;4.18;3.10;;;;;;;18.34;100.00;101016.13;5006808;28;20284;-76
2022/06/27 04:35:07;;;;;;;6.57;4.13;;;;;;;18.26;100.00;101015.50;4990047;28;20049;-76
2022/06/27 04:37:33;;;;;;;8.95;3.88;;;;;;;18.30;100.00;101016.75;4990388;28;20033;-76
2022/06/27 04:40:19;;;;;;;4.72;3.33;;;;;;;18.30;100.00;101011.34;5005223;28;20034;-76
2022/06/27 04:42:48;;;;;;;7.90;3.70;;;;;;;18.38;100.00;101008.44;5006663;28;20065;-74
2022/06/27 04:45:14;;;;;;;4.72;3.42;;;;;;;18.39;100.00;100999.28;5006135;28;20813;-76
2022/06/27 04:47:45;;;;;;;4.30;3.10;;;;;;;18.35;100.00;100984.53;5006111;28;20022;-75
2022/06/27 04:50:18;;;;;;;4.28;3.08;;;;;;;18.47;100.00;100993.69;5005428;28;20095;-76
2022/06/27 04:52:45;;;;;;;4.80;3.33;;;;;;;18.35;100.00;100984.53;5006012;28;20030;-75
2022/06/27 04:55:12;;;;;;;4.68;3.38;;;;;;;18.35;100.00;101016.94;4989098;28;20038;-75
2022/06/27 04:57:42;;;;;;;7.82;3.60;;;;;;;18.16;100.00;101045.63;4989669;28;20026;-75
2022/06/27 05:00:11;;;;;;;6.68;3.00;;;;;;;18.05;100.00;101060.59;4989277;28;20025;-76
2022/06/27 05:03:14;;;;;;;9.68;3.80;;;;;;;17.84;100.00;101069.66;4984561;28;20141;-75
2022/06/27 05:05:45;;;;;;;5.45;3.25;;;;;;;17.72;100.00;101096.38;4979261;28;20030;-75
2022/06/27 05:08:11;;;;;;;8.37;3.37;;;;;;;17.60;100.00;101091.75;4995768;28;20558;-75
2022/06/27 05:10:37;;;;;;;3.03;2.58;;;;;;;17.69;100.00;101101.34;5005655;28;20018;-75
2022/06/27 05:13:04;;;;;;;3.45;2.97;;;;;;;17.71;100.00;101080.38;5006116;28;20507;-75
2022/06/27 05:15:29;;;;;;;8.23;3.28;;;;;;;17.58;100.00;101056.84;4994091;28;20108;-74
2022/06/27 05:17:55;;;;;;;4.72;3.90;;;;;;;17.64;100.00;101037.16;5001397;28;20479;-75
2022/06/27 05:20:22;;;;;;;5.57;3.43;;;;;;;17.82;100.00;101043.91;5006082;28;20037;-78
2022/06/27 05:22:48;;;;;;;7.20;3.33;;;;;;;17.74;100.00;101036.75;5007571;28;20426;-76
2022/06/27 05:25:13;;;;;;;7.53;3.33;;;;;;;17.78;100.00;101015.59;5006639;28;20033;-75
2022/06/27 05:27:40;;;;;;;5.13;3.78;;;;;;;17.82;100.00;101025.00;5007135;28;20057;-76
2022/06/27 05:30:06;;;;;;;6.50;2.97;;;;;;;18.02;100.00;101019.63;5008438;28;20391;-75
2022/06/27 05:32:34;;;;;;;6.68;3.15;;;;;;;17.95;100.00;101016.06;5008055;28;20127;-76
2022/06/27 05:34:59;;;;;;;6.97;3.50;;;;;;;18.10;100.00;101022.97;4990202;28;20072;-75
2022/06/27 05:37:26;;;;;;;8.23;3.97;;;;;;;18.20;100.00;101008.22;5006572;28;20041;-76
2022/06/27 05:39:52;;;;;;;4.95;3.75;;;;;;;18.47;100.00;101001.81;4990523;28;20030;-76
2022/06/27 05:42:18;;;;;;;7.43;3.50;;;;;;;18.96;100.00;101005.94;5006128;28;20032;-77
2022/06/27 05:44:44;;;;;;;6.82;3.25;;;;;;;19.54;100.00;100971.78;5007324;28;20022;-75
2022/06/27 05:47:10;;;;;;;5.53;3.00;;;;;;;20.11;100.00;100929.34;4990259;28;20113;-76
2022/06/27 05:49:58;;;;;;;10.60;4.20;;;;;;;20.38;100.00;100880.28;4993824;28;20475;-76
2022/06/27 05:52:23;;;;;;;5.38;3.47;;;;;;;20.28;100.00;100869.97;4991905;28;20034;-77
2022/06/27 05:54:49;;;;;;;7.55;4.13;;;;;;;20.07;100.00;100864.97;5007788;28;20132;-75
2022/06/27 05:57:16;;;;;;;;;;;;;;;19.87;100.00;100897.63;5005903;28;20411;-75
2022/06/27 05:59:43;;;;;;;8.43;4.28;;;;;;;19.51;100.00;100902.63;4987121;28;20366;-75
2022/06/27 06:02:09;;;;;;;13.23;4.35;;;;;;;19.49;100.00;100960.75;4999583;28;20601;-75
2022/06/27 06:04:38;;;;;;;8.80;4.80;;;;;;;19.53;100.00;100975.53;5004608;28;20030;-76
2022/06/27 06:07:04;;;;;;;10.15;5.75;;;;;;;19.70;100.00;100975.88;5000895;28;20025;-76
2022/06/27 06:09:32;;;;;;;7.10;4.27;;;;;;;20.20;100.00;100986.78;5003625;28;20036;-76
2022/06/27 06:11:58;;;;;;;8.18;5.00;;;;;;;20.23;100.00;100943.00;5004168;28;20067;-76
2022/06/27 06:14:26;;;;;;;10.50;5.63;;;;;;;20.09;100.00;100936.00;4984827;28;20398;-75
2022/06/27 06:16:52;;;;;;;10.38;5.20;;;;;;;20.47;100.00;100938.59;5006118;28;20034;-76
2022/06/27 06:19:18;;;;;;;12.27;4.67;;;;;;;20.47;100.00;100927.75;4991770;28;20034;-77
2022/06/27 06:21:43;;;;;;;12.23;6.50;;;;;;;20.13;100.00;100916.38;4991379;28;20037;-76
2022/06/27 06:24:09;;;;;;;10.27;6.00;;;;;;;19.79;100.00;100929.34;5007349;28;20033;-75
2022/06/27 06:26:35;;;;;;;;;;;;;;;19.80;100.00;100955.38;5008268;28;20026;-76
2022/06/27 06:29:12;;;;;;;9.45;6.28;;;;;;;19.96;100.00;100956.75;4994820;28;19924;-75
2022/06/27 06:31:43;;;;;;;8.20;5.63;;;;;;;20.35;100.00;100970.22;5010873;28;20048;-75
2022/06/27 06:34:11;;;;;;;11.15;5.78;;;;;;;21.04;100.00;100960.97;5003267;28;20034;-75
2022/06/27 06:36:38;;;;;;;7.20;4.68;;;;;;;21.69;100.00;100905.22;5012108;28;20642;-74
2022/06/27 06:39:06;;;;;;;7.07;5.13;;;;;;;21.92;100.00;100853.63;5004690;28;20029;-77
2022/06/27 06:41:32;;;;;;;6.97;5.60;;;;;;;21.67;100.00;100820.41;5004078;28;20022;-75
2022/06/27 06:43:59;;;;;;;;;;;;;;;21.59;100.00;100851.44;5015459;28;20061;-76
2022/06/27 06:46:44;;;;;;;10.13;4.97;;;;;;;21.56;100.00;100883.66;5016121;28;19952;-76
2022/06/27 06:49:21;;;;;;;10.90;5.57;;;;;;;21.87;100.00;100893.44;5015273;28;20641;-76
2022/06/27 06:51:47;;;;;;;10.43;5.82;;;;;;;21.73;100.00;100887.41;5016332;28;20034;-75
2022/06/27 06:54:15;;;;;;;12.63;5.47;;;;;;;21.80;100.00;100920.72;5017074;28;20033;-76
2022/06/27 06:56:41;;;;;;;9.98;6.03;;;;;;;21.84;100.00;100902.03;5016118;28;20029;-76
2022/06/27 06:59:07;;;;;;;8.27;6.45;;;;;;;22.01;100.00;100900.31;5017063;28;20360;-75
2022/06/27 07:01:33;;;;;;;8.15;7.28;;;;;;;21.93;100.00;100909.63;5014409;28;20120;-75
2022/06/27 07:03:59;;;;;;;12.13;7.53;;;;;;;21.87;100.00;100915.19;5008094;28;20394;-76
2022/06/27 07:06:25;;;;;;;;;;;;;;;21.64;100.00;100954.81;5019378;28;20042;-75
2022/06/27 07:08:53;;;;;;;12.73;7.03;;;;;;;21.91;100.00;100952.53;5019496;28;19916;-77
2022/06/27 07:11:21;;;;;;;10.75;7.05;;;;;;;21.95;100.00;100933.88;5015869;28;20044;-76
2022/06/27 07:13:51;;;;;;;16.10;7.97;;;;;;;22.25;100.00;100933.81;5017471;28;20032;-77
2022/06/27 07:16:20;;;;;;;13.25;8.50;;;;;;;22.30;100.00;100922.22;5006395;28;20034;-76
2022/06/27 07:18:49;;;;;;;15.40;8.63;;;;;;;22.58;100.00;100928.84;5014888;28;20029;-77
2022/06/27 07:21:16;;;;;;;12.75;9.10;;;;;;;23.00;100.00;100883.25;4996210;28;20028;-76
2022/06/27 07:23:42;;;;;;;11.43;8.65;;;;;;;22.94;100.00;100881.44;5010374;28;20037;-76
2022/06/27 07:26:09;;;;;;;16.08;9.90;;;;;;;22.58;100.00;100915.25;5012368;28;20031;-77
2022/06/27 07:28:34;;;;;;;14.75;8.38;;;;;;;22.73;100.00;100923.75;5014765;28;20469;-76
2022/06/27 07:31:01;;;;;;;14.13;10.70;;;;;;;22.42;100.00;100903.19;5014239;28;20037;-77
2022/06/27 07:33:28;;;;;;;12.32;8.60;;;;;;;22.49;100.00;100925.66;5014659;28;20684;-76
2022/06/27 07:35:53;;;;;;;16.67;10.52;;;;;;;22.60;100.00;100907.69;5012858;28;20018;-76
2022/06/27 07:38:21;;;;;;;12.20;9.40;;;;;;;23.05;100.00;100896.94;5013367;28;20040;-77
2022/06/27 07:40:46;;;;;;;11.93;8.65;;;;;;;23.42;100.00;100876.69;5012394;28;20018;-75
2022/06/27 07:43:14;;;;;;;12.97;9.07;;;;;;;23.61;100.00;100848.13;4995609;28;20037;-77
2022/06/27 07:45:40;;;;;;;12.93;8.52;;;;;;;23.63;100.00;100813.28;5005579;28;20034;-77
2022/06/27 07:48:06;;;;;;;9.50;8.52;;;;;;;23.39;100.00;100845.31;4998451;28;20141;-76
2022/06/27 07:50:42;;;;;;;15.13;9.88;;;;;;;23.12;100.00;100848.63;5015685;28;20367;-76
2022/06/27 07:53:13;;;;;;;15.05;9.52;;;;;;;23.20;100.00;100854.75;5014659;28;20034;-76
2022/06/27 07:55:57;;;;;;;10.95;9.10;;;;;;;23.07;100.00;100869.50;5013369;28;20045;-77
2022/06/27 07:58:30;;;;;;;13.05;8.95;;;;;;;23.34;100.00;100877.88;5013075;28;20044;-76
2022/06/27 08:00:58;;;;;;;11.45;8.80;;;;;;;23.35;100.00;100904.91;5004329;28;20152;-76
2022/06/27 08:06:09;;;;;;;11.15;8.77;;;;;;;23.97;100.00;100885.00;5017939;28;20033;-76
2022/06/27 08:08:39;;;;;;;10.82;8.45;;;;;;;24.26;100.00;100808.53;5005619;28;20445;-76
2022/06/27 08:11:07;;;;;;;17.42;7.88;;;;;;;24.30;100.00;100806.94;5017088;28;20037;-75
2022/06/27 08:13:35;;;;;;;9.55;8.38;;;;;;;24.35;100.00;100804.28;5015020;28;20014;-77
2022/06/27 08:16:02;;;;;;;11.25;8.70;;;;;;;24.66;100.00;100815.63;5016610;28;20056;-75
2022/06/27 08:18:30;;;;;;;9.80;7.20;;;;;;;24.82;100.00;100798.34;5015423;28;20437;-76
2022/06/27 08:20:56;;;;;;;14.65;9.38;;;;;;;24.23;100.00;100793.50;5017729;28;20490;-75
2022/06/27 08:23:21;;;;;;;12.63;10.17;;;;;;;23.94;100.00;100841.88;5017358;28;20525;-76
2022/06/27 08:25:47;;;;;;;11.73;9.33;;;;;;;23.96;100.00;100871.63;5015126;28;20033;-76
2022/06/27 08:28:16;;;;;;;14.20;10.10;;;;;;;23.69;100.00;100865.97;5004837;28;20034;-77
2022/06/27 08:30:44;;;;;;;16.38;10.30;;;;;;;23.32;100.00;100913.56;5014199;28;20037;-77
2022/06/27 08:33:11;;;;;;;13.50;9.93;;;;;;;22.92;100.00;100938.88;5014294;28;20510;-76
2022/06/27 08:35:39;;;;;;;12.52;9.75;;;;;;;23.05;100.00;100980.53;5013188;28;20030;-77
2022/06/27 08:38:05;;;;;;;13.05;10.00;;;;;;;22.87;100.00;100948.81;5012801;28;20021;-76
2022/06/27 08:40:32;;;;;;;13.63;10.23;;;;;;;22.93;100.00;100992.25;5013008;28;20041;-77
2022/06/27 08:42:58;;;;;;;15.38;10.23;;;;;;;22.82;100.00;100975.91;5013726;28;20033;-77
2022/06/27 08:45:25;;;;;;;11.73;9.63;;;;;;;22.80;100.00;100994.38;5012804;28;20203;-77
2022/06/27 08:47:54;;;;;;;10.77;9.18;;;;;;;22.81;100.00;100996.06;5012563;28;20032;-77
2022/06/27 08:50:20;;;;;;;14.35;9.75;;;;;;;22.91;100.00;100988.91;5012395;28;20236;-77
2022/06/27 08:52:47;;;;;;;12.15;10.40;;;;;;;23.01;100.00;100963.84;5010917;28;20022;-77
2022/06/27 08:55:12;;;;;;;12.93;10.70;;;;;;;22.80;100.00;100934.50;4995018;28;20042;-76
2022/06/27 08:57:41;;;;;;;12.55;9.75;;;;;;;22.71;100.00;100963.97;5013915;28;20046;-76
2022/06/27 09:00:12;;;;;;;12.82;10.80;;;;;;;22.61;100.00;100969.19;5011494;28;20042;-76
2022/06/27 09:02:42;;;;;;;12.02;10.75;;;;;;;22.49;100.00;100963.75;5014926;28;20037;-77
2022/06/27 09:05:23;;;;;;;14.13;10.80;;;;;;;22.56;100.00;100980.78;5012093;28;20056;-77
2022/06/27 09:07:52;;;;;;;12.18;8.55;;;;;;;22.84;100.00;100949.28;5015781;28;20021;-77
2022/06/27 09:10:31;;;;;;;14.10;10.50;;;;;;;22.74;100.00;100919.97;5012699;28;20049;-76
2022/06/27 09:13:08;;;;;;;9.18;7.90;;;;;;;22.92;100.00;100927.13;5013451;28;20045;-77
2022/06/27 09:15:48;;;;;;;15.07;10.13;;;;;;;23.11;100.00;100904.16;5011935;28;20120;-76
2022/06/27 09:18:20;;;;;;;12.07;9.23;;;;;;;23.02;100.00;100916.50;5010819;28;20125;-76
2022/06/27 09:20:50;;;;;;;9.68;8.68;;;;;;;23.12;100.00;100932.22;5009229;28;20445;-76
2022/06/27 09:23:54;;;;;;;11.68;9.05;;;;;;;22.99;100.00;100900.63;5015868;28;20030;-77
2022/06/27 09:26:25;;;;;;;11.18;8.90;;;;;;;23.28;100.00;100942.34;5004168;28;20029;-77
2022/06/27 09:28:53;;;;;;;10.98;9.00;;;;;;;23.38;100.00;100909.03;5004589;28;20038;-77
2022/06/27 09:31:30;;;;;;;10.32;8.63;;;;;;;23.41;100.00;100896.81;5004005;28;20080;-77
2022/06/27 09:34:01;;;;;;;11.18;9.15;;;;;;;23.30;100.00;100893.91;4996747;28;20095;-77
2022/06/27 09:36:29;;;;;;;12.60;9.20;;;;;;;23.18;100.00;100910.28;5012339;28;20030;-77
2022/06/27 09:38:55;;;;;;;14.68;8.68;;;;;;;23.17;100.00;100954.09;5011371;28;20429;-76
2022/06/27 09:41:26;;;;;;;13.77;9.32;;;;;;;23.15;100.00;100948.06;5019437;28;20091;-77
2022/06/27 09:43:52;;;;;;;12.35;9.68;;;;;;;22.93;100.00;100951.41;5020215;28;20026;-78
2022/06/27 09:46:19;;;;;;;10.18;8.50;;;;;;;23.02;100.00;100951.91;5011359;28;20021;-78
2022/06/27 09:48:45;;;;;;;14.90;9.43;;;;;;;22.98;100.00;100956.13;5021596;28;20041;-76
2022/06/27 09:51:17;;;;;;;15.55;9.27;;;;;;;22.96;100.00;100942.75;5018303;28;20089;-78
2022/06/27 09:53:48;;;;;;;14.25;10.27;;;;;;;22.94;100.00;100922.28;5018716;28;20033;-78
2022/06/27 09:56:15;;;;;;;16.25;10.93;;;;;;;22.92;100.00;100910.81;5018793;28;20025;-75
2022/06/27 09:58:42;;;;;;;16.45;10.18;;;;;;;22.59;100.00;100912.28;5017682;28;20025;-77
2022/06/27 10:01:09;;;;;;;14.35;9.48;;;;;;;22.85;100.00;100945.50;5018306;28;20037;-78
2022/06/27 10:03:36;;;;;;;13.27;10.45;;;;;;;22.82;100.00;100932.38;5018988;28;20116;-78
2022/06/27 10:06:03;;;;;;;12.32;10.10;;;;;;;22.69;100.00;100942.44;5018281;28;20033;-78
2022/06/27 10:08:32;;;;;;;17.88;11.70;;;;;;;22.97;100.00;100944.41;5020134;28;20463;-76
2022/06/27 10:11:02;;;;;;;21.60;10.70;;;;;;;23.29;100.00;100948.63;5017307;28;20042;-78
2022/06/27 10:13:30;;;;;;;20.73;10.68;;;;;;;23.31;100.00;100924.69;5015169;28;20030;-76
2022/06/27 10:15:58;;;;;;;14.45;11.20;;;;;;;23.21;100.00;100913.59;5019638;28;20018;-78
2022/06/27 10:18:24;;;;;;;17.38;11.65;;;;;;;23.32;100.00;100932.63;5021320;28;20124;-76
2022/06/27 10:20:51;;;;;;;20.13;11.77;;;;;;;23.25;100.00;100907.44;5017518;28;20125;-77
2022/06/27 10:23:18;;;;;;;12.73;11.43;;;;;;;23.29;100.00;100913.22;5016619;28;20029;-79
2022/06/27 10:25:45;;;;;;;15.95;12.70;;;;;;;23.27;100.00;100931.69;5016732;28;20087;-77
2022/06/27 10:28:14;;;;;;;17.10;12.20;;;;;;;23.34;100.00;100897.81;5017439;28;20044;-77
2022/06/27 10:30:46;;;;;;;15.52;10.95;;;;;;;23.49;100.00;100899.97;5018025;28;20030;-76
2022/06/27 10:33:17;;;;;;;19.63;11.20;;;;;;;23.63;100.00;100862.34;5019568;28;20117;-77
2022/06/27 10:38:22;;;;;;;15.73;10.45;;;;;;;24.20;100.00;100864.09;5022032;28;20042;-78
2022/06/27 10:40:49;;;;;;;15.90;11.60;;;;;;;24.34;100.00;100840.81;5009042;28;20057;-78
2022/06/27 10:43:36;;;;;;;19.58;11.52;;;;;;;24.26;100.00;100846.72;5018592;28;20471;-76
2022/06/27 10:46:04;;;;;;;18.13;11.40;;;;;;;24.71;100.00;100856.63;5017863;28;20041;-78
2022/06/27 10:48:35;;;;;;;16.65;12.45;;;;;;;25.05;100.00;100796.38;5014985;28;20371;-77
2022/06/27 10:51:19;;;;;;;15.55;12.25;;;;;;;25.60;100.00;100759.72;5006183;28;20047;-78
2022/06/27 10:53:46;;;;;;;14.45;12.93;;;;;;;26.03;100.00;100714.06;4998285;28;20399;-78
2022/06/27 10:56:34;;;;;;;15.27;12.02;;;;;;;26.02;100.00;100755.38;5012159;28;20029;-77
2022/06/27 10:59:14;;;;;;;14.25;12.20;;;;;;;26.81;100.00;100654.91;5016804;28;20040;-78
2022/06/27 11:02:09;;;;;;;14.23;11.27;;;;;;;27.62;100.00;100615.63;5014244;28;20033;-76
2022/06/27 11:04:36;;;;;;;15.98;11.10;;;;;;;27.18;100.00;100586.13;5015584;28;20238;-76
2022/06/27 11:07:03;;;;;;;14.75;9.80;;;;;;;27.72;100.00;100563.50;5014624;28;20041;-79
2022/06/27 11:09:43;;;;;;;18.92;10.75;;;;;;;27.60;100.00;100589.59;5015293;28;20068;-76
2022/06/27 11:12:15;;;;;;;14.07;10.63;;;;;;;27.39;100.00;100592.41;5014445;28;20081;-77
2022/06/27 11:14:45;;;;;;;17.50;10.23;;;;;;;28.59;100.00;100667.34;5012972;28;20051;-77
2022/06/27 11:17:27;;;;;;;13.82;11.20;;;;;;;28.98;94.43;100570.31;5015279;28;20048;-78
2022/06/27 11:20:24;;;;;;;20.33;11.43;;;;;;;28.58;95.74;100528.41;5012157;28;20096;-77
2022/06/27 11:22:56;;;;;;;17.38;11.65;;;;;;;27.77;100.00;100499.59;5012043;28;20376;-77
2022/06/27 11:25:24;;;;;;;18.80;12.15;;;;;;;28.41;100.00;100591.13;5011869;28;20072;-77
2022/06/27 11:27:55;;;;;;;17.80;10.48;;;;;;;28.35;99.50;100564.78;5011109;28;20033;-75
2022/06/27 11:33:29;;;;;;;17.35;10.88;;;;;;;27.48;100.00;100573.47;5014091;28;20044;-76